Time;durP1;ratioP1;P1;durP2;ratioP2;P2;SDS_P1;SDS_P2;PMS_P1;PMS_P2;Temp;Humidity;BMP_temperature;BMP_pressure;BME280_temperature;BME280_humidity;BME280_pressure;Samples;Min_cycle;Max_cycle;Signal;HPM_P1;HPM_P2
2023/08/02 00:03:57;;;;;;;1.30;0.90;;;22.90;97.00;;;;;;10095806;28;20041;-73
2023/08/02 00:08:48;;;;;;;1.08;0.75;;;22.70;97.40;;;;;;10095304;28;20063;-73
2023/08/02 00:13:38;;;;;;;1.55;1.10;;;22.70;97.60;;;;;;10095712;28;20462;-73
2023/08/02 00:18:29;;;;;;;2.45;1.25;;;22.80;97.70;;;;;;10087908;28;20040;-73
2023/08/02 00:23:20;;;;;;;1.20;0.85;;;22.80;97.70;;;;;;10076771;28;20053;-73
2023/08/02 00:28:10;;;;;;;2.45;1.00;;;22.70;97.90;;;;;;10082914;28;20025;-74
2023/08/02 00:33:01;;;;;;;2.42;1.00;;;22.50;98.30;;;;;;10100497;28;20032;-73
2023/08/02 00:37:52;;;;;;;1.27;0.70;;;22.50;98.40;;;;;;10117264;28;20033;-73
2023/08/02 00:42:42;;;;;;;4.13;1.20;;;22.60;98.60;;;;;;10090372;28;20102;-72
2023/08/02 00:47:37;;;;;;;4.57;1.85;;;22.50;98.60;;;;;;10103483;28;20021;-73
2023/08/02 00:52:28;;;;;;;4.15;0.98;;;22.50;98.60;;;;;;10107440;28;20029;-72
2023/08/02 00:57:18;;;;;;;1.98;1.05;;;22.60;98.70;;;;;;10100189;28;20033;-72
2023/08/02 01:02:09;;;;;;;2.25;0.93;;;22.50;98.80;;;;;;10101537;28;20041;-72
2023/08/02 01:07:10;;;;;;;1.70;1.00;;;22.40;99.10;;;;;;10101310;28;20029;-72
2023/08/02 01:12:10;;;;;;;1.63;0.85;;;22.40;99.30;;;;;;10098885;28;20115;-72
2023/08/02 01:17:02;;;;;;;2.33;1.00;;;22.40;99.50;;;;;;10120436;28;20032;-72
2023/08/02 01:21:53;;;;;;;3.92;1.00;;;22.20;99.90;;;;;;10116784;28;20041;-72
2023/08/02 01:26:47;;;;;;;1.48;0.80;;;22.20;99.90;;;;;;10102626;28;20031;-72
2023/08/02 01:31:43;;;;;;;1.67;1.00;;;22.30;99.90;;;;;;10101827;28;20040;-72
2023/08/02 01:36:34;;;;;;;1.30;0.90;;;22.20;99.90;;;;;;10099045;28;20028;-72
2023/08/02 01:41:24;;;;;;;2.25;1.00;;;22.30;99.90;;;;;;10100774;28;20049;-71
2023/08/02 01:46:16;;;;;;;2.47;0.80;;;22.30;99.90;;;;;;10105765;28;20437;-72
2023/08/02 01:51:06;;;;;;;15.98;2.75;;;22.30;99.90;;;;;;10099145;28;20107;-72
2023/08/02 01:55:58;;;;;;;3.28;1.10;;;22.10;99.90;;;;;;10101242;28;20570;-72
2023/08/02 02:00:49;;;;;;;2.28;1.10;;;21.90;99.90;;;;;;10099497;28;21130;-73
2023/08/02 02:05:39;;;;;;;1.65;0.80;;;22.00;99.90;;;;;;10099345;28;20017;-71
2023/08/02 02:10:30;;;;;;;2.08;1.13;;;22.10;99.90;;;;;;10103248;28;20024;-72
2023/08/02 02:15:21;;;;;;;2.42;1.30;;;22.10;99.90;;;;;;10098521;28;20036;-72
2023/08/02 02:20:12;;;;;;;1.80;1.10;;;22.00;99.90;;;;;;10099136;28;20045;-74
2023/08/02 02:25:03;;;;;;;1.95;1.25;;;22.10;99.90;;;;;;10098581;28;20024;-72
2023/08/02 02:29:54;;;;;;;1.88;1.23;;;22.10;99.90;;;;;;10098038;28;20024;-74
2023/08/02 02:34:45;;;;;;;4.07;1.35;;;22.00;99.90;;;;;;10096625;28;20040;-72
2023/08/02 02:39:36;;;;;;;1.63;0.93;;;22.00;99.90;;;;;;10097449;28;20037;-72
2023/08/02 02:44:43;;;;;;;3.03;1.40;;;22.00;99.90;;;;;;10100979;28;20059;-72
2023/08/02 02:49:34;;;;;;;3.58;0.93;;;22.00;99.90;;;;;;10097392;28;20418;-73
2023/08/02 02:54:25;;;;;;;3.85;1.20;;;21.80;99.90;;;;;;10112956;28;20036;-73
2023/08/02 02:59:18;;;;;;;1.38;0.95;;;21.70;99.90;;;;;;10097563;28;20451;-72
2023/08/02 03:04:09;;;;;;;2.25;1.25;;;21.60;99.90;;;;;;10089599;28;20040;-72
2023/08/02 03:08:59;;;;;;;2.45;1.23;;;21.80;99.90;;;;;;10084658;28;20068;-72
2023/08/02 03:13:50;;;;;;;2.28;1.40;;;21.50;99.90;;;;;;10093280;28;20028;-72
2023/08/02 03:18:41;;;;;;;2.45;0.98;;;21.50;99.90;;;;;;10094681;28;20037;-72
2023/08/02 03:23:34;;;;;;;2.17;1.00;;;21.60;99.90;;;;;;10093609;28;20045;-72
2023/08/02 03:28:24;;;;;;;3.65;1.83;;;21.40;99.90;;;;;;10096426;28;20047;-72
2023/08/02 03:33:18;;;;;;;3.42;1.25;;;21.40;99.90;;;;;;10096467;28;20029;-72
2023/08/02 03:38:09;;;;;;;3.08;1.27;;;21.20;99.90;;;;;;10096945;28;20036;-72
2023/08/02 03:42:59;;;;;;;2.72;2.03;;;21.20;99.90;;;;;;10096396;28;20063;-72
2023/08/02 03:47:50;;;;;;;3.65;1.67;;;21.20;99.90;;;;;;10095534;28;20021;-72
2023/08/02 03:52:44;;;;;;;5.80;1.42;;;21.20;99.90;;;;;;10115792;28;20021;-72
2023/08/02 03:57:35;;;;;;;1.77;1.08;;;21.20;99.90;;;;;;10091085;28;20108;-72
2023/08/02 04:02:25;;;;;;;2.30;1.42;;;21.20;99.90;;;;;;10102060;28;20138;-72
2023/08/02 04:07:16;;;;;;;1.85;1.13;;;21.00;99.90;;;;;;10104246;28;20017;-72
2023/08/02 04:12:07;;;;;;;2.30;1.42;;;20.90;99.90;;;;;;10103351;28;20036;-72
2023/08/02 04:16:58;;;;;;;2.75;1.27;;;20.90;99.90;;;;;;10103587;28;20022;-72
2023/08/02 04:21:49;;;;;;;2.92;1.33;;;20.90;99.90;;;;;;10103453;28;20449;-72
2023/08/02 04:26:39;;;;;;;2.50;1.13;;;20.80;99.90;;;;;;10103227;28;20040;-73
2023/08/02 04:31:30;;;;;;;3.50;1.48;;;20.70;99.90;;;;;;10103412;28;20036;-73
2023/08/02 04:36:21;;;;;;;1.85;1.00;;;20.70;99.90;;;;;;10102904;28;20033;-73
2023/08/02 04:41:15;;;;;;;1.23;1.00;;;20.80;99.90;;;;;;10102684;28;20111;-73
2023/08/02 04:46:06;;;;;;;1.98;1.38;;;20.80;99.90;;;;;;10104352;28;20398;-73
2023/08/02 04:50:57;;;;;;;5.78;1.52;;;20.90;99.90;;;;;;10117741;28;20033;-73
2023/08/02 04:55:50;;;;;;;2.78;1.45;;;20.60;99.90;;;;;;10096881;28;20043;-72
2023/08/02 05:00:41;;;;;;;2.83;1.67;;;20.60;99.90;;;;;;10102089;28;20040;-74
2023/08/02 05:05:32;;;;;;;2.17;1.50;;;20.60;99.90;;;;;;10098661;28;20120;-73
2023/08/02 05:10:22;;;;;;;1.55;1.17;;;20.60;99.90;;;;;;10099491;28;20040;-72
2023/08/02 05:15:13;;;;;;;2.25;1.30;;;20.70;99.90;;;;;;10098207;28;20135;-73
2023/08/02 05:20:04;;;;;;;2.65;1.48;;;20.70;99.90;;;;;;10100769;28;20052;-72
2023/08/02 05:24:55;;;;;;;2.88;1.73;;;20.70;99.90;;;;;;10100710;28;20056;-73
2023/08/02 05:29:47;;;;;;;6.47;1.55;;;20.80;99.90;;;;;;10101022;28;20044;-73
2023/08/02 05:34:38;;;;;;;3.92;2.10;;;20.60;99.90;;;;;;10100063;28;20025;-73
2023/08/02 05:39:28;;;;;;;2.92;1.40;;;20.50;99.90;;;;;;10100316;28;20102;-72
2023/08/02 05:44:19;;;;;;;3.17;1.50;;;20.50;99.90;;;;;;10100578;28;20043;-72
2023/08/02 05:49:10;;;;;;;2.80;1.50;;;20.60;99.90;;;;;;10090681;28;20037;-73
2023/08/02 05:54:01;;;;;;;2.65;1.25;;;20.80;99.90;;;;;;10082546;28;20064;-73
2023/08/02 05:58:51;;;;;;;3.53;2.20;;;20.60;99.90;;;;;;10093843;28;20037;-72
2023/08/02 06:03:42;;;;;;;2.63;1.77;;;20.50;99.90;;;;;;10110999;28;20035;-73
2023/08/02 06:08:33;;;;;;;4.15;2.35;;;20.50;99.90;;;;;;10098543;28;20048;-72
2023/08/02 06:13:23;;;;;;;1.42;1.00;;;20.50;99.90;;;;;;10098101;28;20021;-72
2023/08/02 06:18:14;;;;;;;2.10;1.33;;;20.60;99.90;;;;;;10097532;28;20136;-73
2023/08/02 06:23:05;;;;;;;3.67;1.80;;;20.70;99.90;;;;;;10098598;28;20560;-73
2023/08/02 06:27:55;;;;;;;2.38;1.20;;;20.50;99.90;;;;;;10098625;28;20459;-72
2023/08/02 06:32:47;;;;;;;2.60;1.52;;;20.40;99.90;;;;;;10097399;28;20036;-74
2023/08/02 06:37:37;;;;;;;2.63;1.63;;;20.50;99.90;;;;;;10101855;28;20033;-72
2023/08/02 06:42:28;;;;;;;2.47;1.27;;;20.50;99.90;;;;;;10097913;28;20572;-73
2023/08/02 06:47:20;;;;;;;2.78;1.30;;;20.40;99.90;;;;;;10094989;28;20029;-71
2023/08/02 06:52:11;;;;;;;2.60;1.33;;;20.30;99.90;;;;;;10101432;28;20063;-68
2023/08/02 06:57:02;;;;;;;2.67;1.50;;;20.30;99.90;;;;;;10091568;28;20024;-72
2023/08/02 07:01:56;;;;;;;3.05;1.60;;;20.30;99.90;;;;;;10096420;28;20045;-71
2023/08/02 07:06:46;;;;;;;3.33;1.58;;;20.30;99.90;;;;;;10110729;28;20040;-71
2023/08/02 07:11:37;;;;;;;5.15;2.05;;;20.30;99.90;;;;;;10095839;28;20341;-70
2023/08/02 07:16:28;;;;;;;2.83;1.67;;;20.30;99.90;;;;;;10096199;28;20033;-72
2023/08/02 07:21:18;;;;;;;4.70;1.38;;;20.20;99.90;;;;;;10095348;28;20053;-70
2023/08/02 07:26:09;;;;;;;6.90;2.15;;;20.30;99.90;;;;;;10095211;28;20029;-70
2023/08/02 07:31:11;;;;;;;4.57;2.78;;;20.30;99.90;;;;;;10096532;28;20414;-72
2023/08/02 07:36:05;;;;;;;2.95;1.88;;;20.30;99.90;;;;;;10113281;28;20024;-70
2023/08/02 07:40:56;;;;;;;2.73;1.53;;;20.30;99.90;;;;;;10108266;28;20559;-73
2023/08/02 07:45:47;;;;;;;3.58;2.05;;;20.30;99.90;;;;;;10116115;28;20116;-73
2023/08/02 07:50:39;;;;;;;3.20;1.65;;;20.30;99.90;;;;;;10110847;28;20100;-71
2023/08/02 07:55:30;;;;;;;2.85;1.60;;;20.30;99.90;;;;;;10105083;28;20085;-72
2023/08/02 08:00:20;;;;;;;3.92;1.77;;;20.40;99.90;;;;;;10106917;28;20060;-72
2023/08/02 08:05:11;;;;;;;3.58;2.00;;;20.50;99.90;;;;;;10122082;28;20384;-72
2023/08/02 08:10:02;;;;;;;4.28;1.80;;;20.40;99.90;;;;;;10105167;28;20529;-74
2023/08/02 08:14:54;;;;;;;3.70;2.03;;;20.50;99.90;;;;;;10110346;28;20052;-72
2023/08/02 08:19:45;;;;;;;2.78;1.80;;;20.50;99.90;;;;;;10090976;28;20041;-74
2023/08/02 08:24:35;;;;;;;4.80;2.85;;;20.50;99.90;;;;;;10095387;28;20036;-73
2023/08/02 08:29:29;;;;;;;2.78;1.73;;;20.70;99.90;;;;;;10107649;28;20098;-72
2023/08/02 08:34:20;;;;;;;5.25;1.95;;;20.70;99.90;;;;;;10084151;28;20255;-69
2023/08/02 08:39:11;;;;;;;4.50;1.90;;;20.70;99.90;;;;;;10100122;28;20578;-72
2023/08/02 08:44:03;;;;;;;3.63;2.17;;;20.60;99.90;;;;;;10109901;28;20103;-68
2023/08/02 08:48:54;;;;;;;4.07;2.10;;;20.50;99.90;;;;;;10106217;28;20036;-71
2023/08/02 08:53:44;;;;;;;4.78;2.10;;;20.40;99.90;;;;;;10105406;28;20033;-69
2023/08/02 08:58:37;;;;;;;3.47;2.42;;;20.40;99.90;;;;;;10094918;28;20049;-73
2023/08/02 09:03:28;;;;;;;4.18;1.98;;;20.40;99.90;;;;;;10102615;28;20131;-72
2023/08/02 09:08:18;;;;;;;4.35;2.67;;;20.40;99.90;;;;;;10125038;28;20135;-71
2023/08/02 09:13:26;;;;;;;3.42;2.05;;;20.50;99.90;;;;;;10104596;28;20033;-70
2023/08/02 09:18:17;;;;;;;5.15;2.60;;;20.50;99.90;;;;;;10116323;28;20029;-71
2023/08/02 09:23:14;;;;;;;3.97;2.13;;;20.50;99.90;;;;;;10101005;28;20056;-73
2023/08/02 09:28:11;;;;;;;4.32;1.95;;;20.60;99.90;;;;;;10096034;28;20498;-72
2023/08/02 09:33:07;;;;;;;4.57;2.20;;;20.60;99.90;;;;;;10099275;28;20053;-72
2023/08/02 09:38:02;;;;;;;4.00;2.60;;;20.60;99.90;;;;;;10096506;28;20041;-69
2023/08/02 09:42:57;;;;;;;3.15;1.90;;;20.60;99.90;;;;;;10100063;28;20549;-71
2023/08/02 09:47:51;;;;;;;5.10;2.35;;;20.60;99.90;;;;;;10115715;28;20078;-70
2023/08/02 09:52:42;;;;;;;3.93;2.27;;;20.70;99.90;;;;;;10104267;28;20107;-69
2023/08/02 09:57:33;;;;;;;2.95;1.60;;;20.70;99.90;;;;;;10097306;28;21147;-71
2023/08/02 10:02:25;;;;;;;4.35;2.15;;;20.70;99.90;;;;;;10087890;28;20033;-70
2023/08/02 10:07:16;;;;;;;3.20;2.03;;;20.90;99.90;;;;;;10098475;28;20032;-71
2023/08/02 10:12:10;;;;;;;3.13;1.73;;;20.90;99.90;;;;;;10098827;28;20315;-70
2023/08/02 10:17:01;;;;;;;5.57;2.30;;;20.90;99.90;;;;;;10103101;28;20029;-70
2023/08/02 10:21:53;;;;;;;3.28;1.70;;;20.90;99.90;;;;;;10102190;28;20037;-71
2023/08/02 10:26:44;;;;;;;3.28;2.28;;;20.90;99.90;;;;;;10099270;28;20255;-71
2023/08/02 10:31:35;;;;;;;3.47;2.28;;;21.00;99.90;;;;;;10090322;28;20259;-72
2023/08/02 10:36:26;;;;;;;3.35;2.00;;;21.10;99.90;;;;;;10101528;28;20031;-72
2023/08/02 10:41:18;;;;;;;3.58;2.13;;;21.00;99.90;;;;;;10097586;28;20116;-71
2023/08/02 10:46:28;;;;;;;3.95;2.00;;;21.10;99.90;;;;;;10097019;28;20032;-71
2023/08/02 10:51:37;;;;;;;6.18;2.45;;;21.20;99.90;;;;;;10087337;28;20061;-72
2023/08/02 10:56:27;;;;;;;5.45;2.30;;;21.20;99.90;;;;;;10091614;28;20455;-74
2023/08/02 11:01:19;;;;;;;5.28;2.45;;;21.20;99.90;;;;;;10080190;28;20040;-72
2023/08/02 11:06:32;;;;;;;5.53;2.92;;;21.30;99.90;;;;;;10067706;28;20049;-73
2023/08/02 11:11:31;;;;;;;25.15;6.43;;;21.30;99.90;;;;;;10092160;28;20033;-71
2023/08/02 11:16:22;;;;;;;7.72;2.70;;;21.40;99.90;;;;;;10093785;28;20081;-72
2023/08/02 11:21:14;;;;;;;6.10;2.53;;;21.40;99.90;;;;;;10093927;28;20120;-71
2023/08/02 11:26:15;;;;;;;5.35;2.55;;;21.50;99.90;;;;;;10094139;28;20413;-69
2023/08/02 11:31:06;;;;;;;4.85;2.60;;;21.40;99.90;;;;;;10088517;28;20112;-73
2023/08/02 11:35:57;;;;;;;9.43;4.13;;;21.50;99.90;;;;;;10076877;28;20104;-74
2023/08/02 11:40:48;;;;;;;10.52;3.97;;;21.50;99.90;;;;;;10071600;28;20107;-73
2023/08/02 11:45:38;;;;;;;9.20;3.15;;;21.60;99.90;;;;;;10081723;28;20070;-73
2023/08/02 11:50:31;;;;;;;5.72;2.67;;;21.60;99.90;;;;;;10082836;28;20029;-68
2023/08/02 11:55:22;;;;;;;7.90;2.40;;;21.60;99.90;;;;;;10081857;28;20128;-71
2023/08/02 12:00:13;;;;;;;7.13;2.25;;;21.60;99.90;;;;;;10086429;28;20147;-69
2023/08/02 12:05:08;;;;;;;5.90;2.47;;;21.60;99.90;;;;;;10094169;28;20036;-73
2023/08/02 12:10:01;;;;;;;4.65;2.38;;;21.70;99.90;;;;;;10093255;28;20025;-70
2023/08/02 12:14:52;;;;;;;4.38;2.15;;;21.70;99.90;;;;;;10111452;28;20021;-75
2023/08/02 12:19:43;;;;;;;6.20;2.33;;;21.90;99.90;;;;;;10095303;28;20047;-73
2023/08/02 12:24:34;;;;;;;5.32;1.80;;;21.90;99.90;;;;;;10083554;28;20092;-72
2023/08/02 12:29:26;;;;;;;5.55;2.50;;;22.00;99.90;;;;;;10089844;28;20037;-74
2023/08/02 12:34:18;;;;;;;4.80;2.15;;;22.00;99.90;;;;;;10080515;28;20025;-71
2023/08/02 12:39:08;;;;;;;6.22;2.50;;;22.00;99.90;;;;;;10066457;28;20320;-74
2023/08/02 12:43:59;;;;;;;3.53;2.17;;;22.00;99.90;;;;;;10088678;28;20029;-69
2023/08/02 12:48:50;;;;;;;3.83;2.30;;;22.10;99.90;;;;;;10086122;28;20034;-74
2023/08/02 12:53:41;;;;;;;13.32;3.38;;;22.30;99.90;;;;;;10069581;28;20033;-71
2023/08/02 12:58:32;;;;;;;7.88;3.10;;;22.40;99.90;;;;;;10076953;28;20417;-69
2023/08/02 13:03:23;;;;;;;6.80;3.30;;;22.60;99.90;;;;;;10084018;28;20036;-70
2023/08/02 13:08:13;;;;;;;9.63;3.10;;;22.90;99.90;;;;;;10097505;28;20068;-72
2023/08/02 13:13:07;;;;;;;33.65;9.10;;;23.10;99.90;;;;;;10077457;28;20376;-70
2023/08/02 13:17:57;;;;;;;7.47;2.63;;;23.20;99.90;;;;;;10075610;28;20677;-70
2023/08/02 13:22:48;;;;;;;25.02;4.68;;;23.20;99.90;;;;;;10072238;28;20337;-72
2023/08/02 13:27:39;;;;;;;42.72;9.02;;;23.20;99.90;;;;;;10096197;28;20021;-70
2023/08/02 13:32:34;;;;;;;11.48;4.90;;;23.20;99.90;;;;;;10088309;28;20056;-73
2023/08/02 13:37:24;;;;;;;48.00;8.90;;;23.20;99.90;;;;;;10096160;28;20487;-75
2023/08/02 13:42:15;;;;;;;5.68;2.22;;;23.10;99.90;;;;;;10080253;28;20048;-76
2023/08/02 13:47:06;;;;;;;3.38;1.73;;;23.20;99.90;;;;;;10094702;28;20033;-72
2023/08/02 13:51:57;;;;;;;14.95;3.03;;;23.30;99.90;;;;;;10097348;28;20178;-73
2023/08/02 13:56:48;;;;;;;6.60;1.25;;;23.40;99.90;;;;;;10095077;28;20041;-75
2023/08/02 14:01:38;;;;;;;2.72;1.45;;;23.40;99.90;;;;;;10094016;28;20125;-74
2023/08/02 14:06:29;;;;;;;1.60;1.20;;;23.40;99.90;;;;;;10093224;28;20255;-72
2023/08/02 14:11:20;;;;;;;4.28;1.33;;;23.40;99.90;;;;;;10099232;28;20032;-72
2023/08/02 14:16:10;;;;;;;4.80;1.48;;;23.50;99.90;;;;;;10111247;28;20025;-72
2023/08/02 14:21:01;;;;;;;4.15;1.33;;;23.70;99.90;;;;;;10097287;28;20049;-72
2023/08/02 14:25:52;;;;;;;2.13;1.23;;;23.70;99.90;;;;;;10098758;28;20372;-72
2023/08/02 14:30:43;;;;;;;2.92;1.80;;;24.00;99.90;;;;;;10099109;28;20126;-74
2023/08/02 14:35:33;;;;;;;2.58;1.85;;;24.30;99.90;;;;;;10106523;28;20044;-77
2023/08/02 14:40:24;;;;;;;2.53;1.48;;;24.60;99.90;;;;;;10098074;28;20050;-75
2023/08/02 14:45:15;;;;;;;4.68;1.40;;;24.80;99.90;;;;;;10098692;28;20036;-72
2023/08/02 14:50:05;;;;;;;2.17;1.40;;;24.90;99.90;;;;;;10095590;28;20029;-75
2023/08/02 14:54:57;;;;;;;1.90;1.30;;;25.20;99.90;;;;;;10095900;28;20056;-73
2023/08/02 14:59:48;;;;;;;3.22;1.20;;;25.60;99.90;;;;;;10094270;28;20033;-70
2023/08/02 15:04:39;;;;;;;2.00;1.00;;;26.00;99.90;;;;;;10089505;28;20104;-71
2023/08/02 15:09:30;;;;;;;3.08;1.30;;;25.90;99.90;;;;;;10103069;28;20033;-69
2023/08/02 15:14:21;;;;;;;2.08;1.50;;;25.80;99.90;;;;;;10096334;28;20083;-70
2023/08/02 15:19:12;;;;;;;1.67;1.17;;;25.60;99.90;;;;;;10096970;28;20083;-74
2023/08/02 15:24:03;;;;;;;2.28;1.35;;;25.50;99.90;;;;;;10092928;28;20053;-75
2023/08/02 15:28:54;;;;;;;1.67;1.20;;;25.60;99.90;;;;;;10093938;28;20559;-71
2023/08/02 15:33:46;;;;;;;2.60;1.20;;;25.90;99.90;;;;;;10087949;28;20055;-73
2023/08/02 15:38:38;;;;;;;1.75;1.30;;;26.10;99.90;;;;;;10083382;28;20025;-74
2023/08/02 15:43:29;;;;;;;2.55;1.20;;;26.30;99.90;;;;;;10093624;28;20190;-70
2023/08/02 15:48:20;;;;;;;3.65;1.05;;;26.10;99.90;;;;;;10095897;28;20037;-70
2023/08/02 15:53:10;;;;;;;3.97;1.60;;;25.70;99.90;;;;;;10088801;28;20036;-70
2023/08/02 15:58:01;;;;;;;3.95;1.50;;;25.60;99.90;;;;;;10091677;28;20029;-71
2023/08/02 16:02:52;;;;;;;2.88;1.30;;;24.80;99.90;;;;;;10096725;28;20025;-72
2023/08/02 16:07:43;;;;;;;3.63;1.50;;;23.30;99.90;;;;;;10094842;28;20151;-72
2023/08/02 16:12:33;;;;;;;2.42;1.40;;;22.60;99.90;;;;;;10103147;28;20478;-72
2023/08/02 16:17:24;;;;;;;3.30;1.60;;;22.30;99.90;;;;;;10115578;28;20108;-71
2023/08/02 16:22:15;;;;;;;2.40;1.30;;;22.30;99.90;;;;;;10103030;28;20515;-70
2023/08/02 16:27:06;;;;;;;2.63;1.90;;;22.40;99.90;;;;;;10090870;28;20052;-72
2023/08/02 16:32:00;;;;;;;2.40;1.63;;;22.50;99.90;;;;;;10102150;28;20041;-71
2023/08/02 16:36:50;;;;;;;3.38;2.15;;;22.70;99.90;;;;;;10100022;28;20390;-73
2023/08/02 16:41:44;;;;;;;2.28;1.35;;;23.60;99.90;;;;;;10102378;28;20558;-73
2023/08/02 16:46:35;;;;;;;1.70;1.20;;;24.10;99.90;;;;;;10099997;28;20025;-72
2023/08/02 16:51:26;;;;;;;2.05;1.67;;;23.90;99.90;;;;;;10100413;28;20072;-74
2023/08/02 16:56:17;;;;;;;1.83;1.30;;;23.70;99.90;;;;;;10117936;28;20021;-73
2023/08/02 17:01:08;;;;;;;2.28;1.10;;;23.50;99.90;;;;;;10097001;28;20044;-72
2023/08/02 17:05:59;;;;;;;3.55;1.80;;;23.90;99.90;;;;;;10117211;28;20021;-72
2023/08/02 17:10:49;;;;;;;1.75;1.17;;;25.00;99.90;;;;;;10102562;28;20120;-71
2023/08/02 17:15:40;;;;;;;2.05;1.42;;;25.60;99.90;;;;;;10102065;28;20115;-71
2023/08/02 17:20:31;;;;;;;1.40;0.82;;;25.50;99.90;;;;;;10102020;28;20059;-72
2023/08/02 17:25:22;;;;;;;3.20;1.10;;;25.80;99.90;;;;;;10103931;28;20028;-72
2023/08/02 17:30:12;;;;;;;1.08;0.60;;;26.00;99.90;;;;;;10111224;28;20037;-70
2023/08/02 17:35:03;;;;;;;1.30;0.80;;;26.00;99.90;;;;;;10095782;28;20075;-70
2023/08/02 17:39:55;;;;;;;1.30;0.80;;;25.90;99.90;;;;;;10101535;28;20048;-70
2023/08/02 17:44:45;;;;;;;0.73;0.60;;;25.10;99.90;;;;;;10102293;28;20056;-71
2023/08/02 17:49:36;;;;;;;11.15;6.47;;;24.80;99.90;;;;;;10099615;28;20032;-69
2023/08/02 17:54:27;;;;;;;1.98;1.20;;;24.90;99.90;;;;;;10100670;28;20056;-70
2023/08/02 17:59:25;;;;;;;1.35;1.00;;;24.80;99.90;;;;;;10098840;28;20060;-70
2023/08/02 18:04:16;;;;;;;2.72;0.80;;;24.70;99.90;;;;;;10089899;28;20044;-71
2023/08/02 18:09:07;;;;;;;2.75;1.00;;;24.60;99.90;;;;;;10118104;28;20486;-70
2023/08/02 18:13:58;;;;;;;1.20;1.00;;;24.60;99.90;;;;;;10098502;28;20029;-73
2023/08/02 18:18:48;;;;;;;1.33;1.00;;;24.60;99.90;;;;;;10099574;28;20626;-69
2023/08/02 18:23:40;;;;;;;1.35;0.80;;;24.60;99.90;;;;;;10081880;28;20519;-68
2023/08/02 18:28:31;;;;;;;1.77;1.10;;;24.60;99.90;;;;;;10101924;28;20175;-70
2023/08/02 18:33:23;;;;;;;1.90;1.20;;;24.50;99.90;;;;;;10072555;28;20032;-70
2023/08/02 18:38:14;;;;;;;4.07;1.10;;;24.50;99.90;;;;;;10069567;28;20061;-71
2023/08/02 18:43:04;;;;;;;2.72;1.42;;;24.40;99.90;;;;;;10079535;28;20045;-69
2023/08/02 18:47:55;;;;;;;3.63;1.20;;;24.30;99.90;;;;;;10097986;28;20036;-70
2023/08/02 18:52:49;;;;;;;1.08;0.73;;;24.30;99.90;;;;;;10101929;28;20522;-69
2023/08/02 18:57:40;;;;;;;2.78;1.83;;;24.30;99.90;;;;;;10097663;28;20683;-69
2023/08/02 19:02:36;;;;;;;1.70;1.17;;;24.30;99.90;;;;;;10089893;28;20051;-69
2023/08/02 19:07:27;;;;;;;1.38;0.90;;;24.30;99.90;;;;;;10082674;28;20070;-69
2023/08/02 19:12:23;;;;;;;2.25;1.30;;;24.20;99.90;;;;;;10090336;28;20037;-70
2023/08/02 19:17:14;;;;;;;2.72;1.08;;;24.20;99.90;;;;;;10088388;28;20463;-69
2023/08/02 19:22:10;;;;;;;2.33;1.00;;;24.20;99.90;;;;;;10084638;28;20053;-69
2023/08/02 19:27:01;;;;;;;1.77;1.13;;;24.10;99.90;;;;;;10101565;28;20395;-70
2023/08/02 19:31:52;;;;;;;1.67;0.82;;;24.10;99.90;;;;;;10091428;28;20219;-69
2023/08/02 19:36:46;;;;;;;2.88;1.10;;;24.10;99.90;;;;;;10085458;28;20326;-68
2023/08/02 19:41:37;;;;;;;4.15;1.52;;;24.10;99.90;;;;;;10069981;28;20600;-69
2023/08/02 19:46:28;;;;;;;2.28;1.20;;;24.10;99.90;;;;;;10071747;28;20014;-70
2023/08/02 19:51:19;;;;;;;2.92;1.00;;;23.90;99.90;;;;;;10085374;28;20086;-70
2023/08/02 19:56:13;;;;;;;2.92;1.10;;;24.00;99.90;;;;;;10086467;28;20021;-70
2023/08/02 20:01:03;;;;;;;1.13;0.87;;;24.00;99.90;;;;;;10090056;28;20094;-70
2023/08/02 20:05:56;;;;;;;1.60;1.08;;;24.00;99.90;;;;;;10091609;28;20025;-69
2023/08/02 20:10:55;;;;;;;2.50;1.55;;;23.90;99.90;;;;;;10086695;28;20293;-67
2023/08/02 20:15:47;;;;;;;2.72;0.70;;;23.90;99.90;;;;;;10088256;28;20021;-69
2023/08/02 20:20:42;;;;;;;2.38;1.33;;;23.90;99.90;;;;;;10086516;28;20068;-68
2023/08/02 20:25:36;;;;;;;3.25;1.15;;;23.90;99.90;;;;;;10090056;28;20461;-69
2023/08/02 20:30:27;;;;;;;2.30;1.20;;;23.80;99.90;;;;;;10089469;28;20021;-68
2023/08/02 20:35:20;;;;;;;4.47;1.73;;;23.60;99.90;;;;;;10090951;28;20108;-68
2023/08/02 20:40:11;;;;;;;3.08;1.52;;;23.70;99.90;;;;;;10102301;28;20029;-68
2023/08/02 20:45:04;;;;;;;5.20;1.52;;;23.70;99.90;;;;;;10103418;28;20029;-69
2023/08/02 20:49:54;;;;;;;3.67;1.23;;;23.60;99.90;;;;;;10106720;28;20068;-68
2023/08/02 20:54:46;;;;;;;4.47;1.27;;;23.50;99.90;;;;;;10100142;28;20029;-69
2023/08/02 20:59:37;;;;;;;2.95;1.33;;;23.40;99.90;;;;;;10117943;28;20536;-69
2023/08/02 21:04:27;;;;;;;4.50;1.08;;;23.40;99.90;;;;;;10101775;28;20099;-68
2023/08/02 21:09:19;;;;;;;2.42;1.15;;;23.40;99.90;;;;;;10094755;28;20115;-68
2023/08/02 21:14:10;;;;;;;3.97;1.42;;;23.30;99.90;;;;;;10093952;28;20680;-69
2023/08/02 21:19:01;;;;;;;2.90;1.27;;;23.40;99.90;;;;;;10089411;28;20359;-69
2023/08/02 21:23:55;;;;;;;3.80;1.48;;;23.30;99.90;;;;;;10093858;28;20060;-69
2023/08/02 21:28:47;;;;;;;5.03;1.40;;;23.30;99.90;;;;;;10105094;28;20033;-69
2023/08/02 21:33:37;;;;;;;4.13;1.10;;;23.20;99.90;;;;;;10101061;28;20299;-69
2023/08/02 21:38:32;;;;;;;4.45;1.33;;;23.20;99.90;;;;;;10108931;28;20528;-69
2023/08/02 21:43:28;;;;;;;4.57;0.90;;;23.10;99.90;;;;;;10091255;28;20072;-69
2023/08/02 21:48:20;;;;;;;3.03;1.00;;;23.00;99.90;;;;;;10071435;28;20064;-69
2023/08/02 21:53:19;;;;;;;5.18;1.05;;;23.00;99.90;;;;;;10094275;28;20025;-69
2023/08/02 21:58:15;;;;;;;2.28;0.73;;;23.00;99.90;;;;;;10101838;28;20100;-70
2023/08/02 22:03:09;;;;;;;2.67;1.08;;;23.00;99.90;;;;;;10100028;28;20410;-70
2023/08/02 22:08:07;;;;;;;4.72;1.15;;;23.10;99.90;;;;;;10098383;28;20108;-70
2023/08/02 22:13:00;;;;;;;3.85;1.27;;;23.00;99.90;;;;;;10093592;28;20141;-70
2023/08/02 22:17:53;;;;;;;4.20;1.38;;;23.00;99.90;;;;;;10104569;28;20262;-68
2023/08/02 22:22:44;;;;;;;4.35;1.63;;;22.90;99.90;;;;;;10098461;28;20056;-68
2023/08/02 22:27:35;;;;;;;4.35;1.38;;;22.80;99.90;;;;;;10114057;28;20049;-68
2023/08/02 22:32:26;;;;;;;5.03;1.40;;;22.80;99.90;;;;;;10099359;28;20036;-69
2023/08/02 22:37:16;;;;;;;2.58;1.38;;;22.80;99.90;;;;;;10098754;28;20044;-70
2023/08/02 22:42:07;;;;;;;5.47;1.20;;;22.90;99.90;;;;;;10112882;28;20408;-69
2023/08/02 22:46:58;;;;;;;4.90;1.27;;;22.80;99.90;;;;;;10096112;28;20081;-68
2023/08/02 22:51:48;;;;;;;5.10;1.80;;;22.80;99.90;;;;;;10099149;28;20047;-68
2023/08/02 22:56:39;;;;;;;7.13;2.28;;;22.80;99.90;;;;;;10098490;28;20025;-69
2023/08/02 23:01:33;;;;;;;4.60;1.10;;;22.60;99.90;;;;;;10099722;28;20029;-68
2023/08/02 23:06:27;;;;;;;1.47;1.30;;;22.70;99.90;;;;;;10096505;28;20021;-69
2023/08/02 23:11:19;;;;;;;2.97;0.95;;;22.80;99.90;;;;;;10096303;28;20411;-68
2023/08/02 23:16:21;;;;;;;6.00;1.40;;;22.80;99.90;;;;;;10086442;28;20632;-69
2023/08/02 23:21:12;;;;;;;7.50;1.45;;;22.60;99.90;;;;;;10096810;28;20112;-68
2023/08/02 23:26:13;;;;;;;5.03;1.23;;;22.60;99.90;;;;;;10097904;28;20037;-70
2023/08/02 23:31:05;;;;;;;2.92;1.52;;;22.60;99.90;;;;;;10097353;28;20056;-69
2023/08/02 23:35:56;;;;;;;2.08;0.98;;;22.60;99.90;;;;;;10096892;28;20173;-69
2023/08/02 23:40:50;;;;;;;3.03;1.02;;;22.50;99.90;;;;;;10105143;28;20309;-70
2023/08/02 23:45:42;;;;;;;2.90;1.00;;;22.50;99.90;;;;;;10110866;28;20474;-69
2023/08/02 23:50:33;;;;;;;5.13;1.45;;;22.40;99.90;;;;;;10095087;28;20383;-68
2023/08/02 23:55:24;;;;;;;6.25;1.45;;;22.40;99.90;;;;;;10096252;28;20491;-68
